Terminal Aerodrome Forecast
Issued by NWS

Home | Current Version | Previous Version | Text Only | Print | Product List | Glossary On
Versions: 1 2 3 4 5 6 7 8 9 10 11 12 13 14 15 16 17 18 19 20 21 22 23 24 25 26 27 28 29 30 31 32 33 34
000
FTUS43 KDLH 120700 AAA
TAFHYR
TAF AMD
KHYR 120704Z 1207/1306 VRB03KT 6SM BR FEW005
     FM120800 VRB02KT 3SM BR FEW005
     FM121000 VRB02KT 2SM BR SCT005
      TEMPO 1210/1213 1/2SM FG OVC003
     FM121400 25004KT P6SM SCT008=

USA.gov is the U.S. government's official web portal to all federal, state and local government web resources and services.